Terminal Aerodrome Forecast
Issued by NWS Austin/San Antonio, TX

Home | Current Version | Previous Version | Text Only | Print | Product List | Glossary On
Versions: 1 2 3 4 5 6 7 8 9 10 11 12 13 14
045
FTUS44 KEWX 250531
TAFSAT
TAF
KSAT 250531Z 2506/2612 20005KT P6SM SCT250
     FM252000 VRB05KT P6SM SCT250
     FM260100 04006KT P6SM SCT030 SCT250=

USA.gov is the U.S. government's official web portal to all federal, state and local government web resources and services.